Terminal Aerodrome Forecast
Issued by NWS

Home | Current Version | Previous Version | Text Only | Print | Product List | Glossary On
Versions: 1 2 3 4 5 6 7 8 9 10 11 12 13 14 15 16 17 18 19 20 21 22 23 24 25 26 27 28
829
FTUS42 TJSJ 250002 AAA
TAFKPK
TAF AMD
TKPK 250002Z 2500/2524 04012KT P6SM VCSH SCT020
      TEMPO 2500/2502 -SHRA BKN018
     FM251300 07013KT P6SM FEW018 SCT025
     FM252300 06006KT P6SM SCT022
      AMD NOT SKED 2502/2511=

USA.gov is the U.S. government's official web portal to all federal, state and local government web resources and services.